createdAt,value
2018-06-29T00:00:12.614Z,98222.19
2018-06-29T00:02:41.880Z,98227.20
2018-06-29T00:05:10.982Z,98230.91
2018-06-29T00:07:40.078Z,98227.30
2018-06-29T00:10:09.286Z,98230.38
2018-06-29T00:12:39.345Z,98232.95
2018-06-29T00:15:08.582Z,98228.83
2018-06-29T00:17:38.351Z,98235.98
2018-06-29T00:20:08.217Z,98235.14
2018-06-29T00:22:37.471Z,98242.11
2018-06-29T00:25:07.433Z,98237.95
2018-06-29T00:27:36.699Z,98236.09
2018-06-29T00:30:06.582Z,98233.05
2018-06-29T00:32:36.159Z,98226.69
2018-06-29T00:35:05.492Z,98233.62
2018-06-29T00:37:35.507Z,98239.67
2018-06-29T00:40:04.664Z,98238.16
2018-06-29T00:42:34.427Z,98235.78
2018-06-29T00:45:03.542Z,98241.13
2018-06-29T00:47:32.639Z,98236.08
2018-06-29T00:50:01.535Z,98234.23
2018-06-29T00:52:30.662Z,98234.25
2018-06-29T00:54:59.795Z,98230.67
2018-06-29T00:57:28.890Z,98230.03
2018-06-29T00:59:59.342Z,98232.29
2018-06-29T01:02:28.471Z,98236.27
2018-06-29T01:04:57.954Z,98236.63
2018-06-29T01:07:27.163Z,98240.05
2018-06-29T01:09:56.330Z,98236.46
2018-06-29T01:12:25.555Z,98236.97
2018-06-29T01:14:54.835Z,98239.80
2018-06-29T01:17:23.957Z,98237.53
2018-06-29T01:19:53.112Z,98233.25
2018-06-29T01:22:22.246Z,98239.95
2018-06-29T01:24:51.586Z,98227.30
2018-06-29T01:27:20.748Z,98232.67
2018-06-29T01:29:49.877Z,98230.54
2018-06-29T01:32:19.028Z,98232.52
2018-06-29T01:34:48.190Z,98227.52
2018-06-29T01:37:17.314Z,98221.91
2018-06-29T01:39:46.546Z,98219.29
2018-06-29T01:42:15.711Z,98218.97
2018-06-29T01:44:45.885Z,98223.80
2018-06-29T01:47:15.679Z,98213.62
2018-06-29T01:49:44.970Z,98208.09
2018-06-29T01:52:14.285Z,98211.47
2018-06-29T01:54:43.586Z,98216.14
2018-06-29T01:57:13.283Z,98208.09
2018-06-29T01:59:42.615Z,98210.94
2018-06-29T02:02:11.942Z,98206.75
2018-06-29T02:04:41.826Z,98212.10
2018-06-29T02:07:10.967Z,98207.80
2018-06-29T02:09:40.091Z,98218.72
2018-06-29T02:12:11.575Z,98216.27
2018-06-29T02:14:40.827Z,98223.70
2018-06-29T02:17:09.953Z,98214.78
2018-06-29T02:19:39.145Z,98216.08
2018-06-29T02:22:08.839Z,98213.95
2018-06-29T02:24:38.906Z,98205.07
2018-06-29T02:27:08.338Z,98208.99
2018-06-29T02:29:37.510Z,98213.45
2018-06-29T02:32:08.236Z,98206.74
2018-06-29T02:34:37.682Z,98205.45
2018-06-29T02:37:07.993Z,98207.31
2018-06-29T02:39:37.131Z,98206.62
2018-06-29T02:42:06.330Z,98204.05
2018-06-29T02:44:35.467Z,98205.79
2018-06-29T02:47:04.664Z,98199.08
2018-06-29T02:49:33.814Z,98194.66
2018-06-29T02:52:03.503Z,98203.28
2018-06-29T02:54:32.608Z,98199.92
2018-06-29T02:57:01.737Z,98200.82
2018-06-29T02:59:30.801Z,98197.90
2018-06-29T03:01:59.858Z,98197.30
2018-06-29T03:04:28.933Z,98193.38
2018-06-29T03:06:58.163Z,98197.09
2018-06-29T03:09:27.611Z,98190.02
2018-06-29T03:11:56.782Z,98190.09
2018-06-29T03:14:26.207Z,98194.78
2018-06-29T03:16:56.015Z,98184.48
2018-06-29T03:19:56.418Z,98180.13
2018-06-29T03:22:26.250Z,98180.18
2018-06-29T03:24:55.488Z,98183.14
2018-06-29T03:27:25.231Z,98177.32
2018-06-29T03:29:55.190Z,98186.50
2018-06-29T03:32:25.044Z,98182.64
2018-06-29T03:34:54.234Z,98180.86
2018-06-29T03:37:24.057Z,98176.55
2018-06-29T03:39:53.127Z,98183.41
2018-06-29T03:42:22.402Z,98187.61
2018-06-29T03:44:51.479Z,98181.14
2018-06-29T03:47:20.636Z,98178.44
2018-06-29T03:49:49.714Z,98184.27
2018-06-29T03:52:18.804Z,98182.42
2018-06-29T03:54:47.909Z,98181.31
2018-06-29T03:57:16.983Z,98185.17
2018-06-29T03:59:46.098Z,98176.32
2018-06-29T04:02:15.186Z,98177.27
2018-06-29T04:04:44.255Z,98185.82
2018-06-29T04:07:13.390Z,98171.99
2018-06-29T04:09:42.515Z,98176.16
2018-06-29T04:12:11.674Z,98171.10
2018-06-29T04:14:40.742Z,98171.72
2018-06-29T04:17:09.831Z,98168.27
2018-06-29T04:19:38.903Z,98164.86
2018-06-29T04:22:07.965Z,98168.27
2018-06-29T04:24:37.094Z,98171.45
2018-06-29T04:27:06.159Z,98172.80
2018-06-29T04:29:35.401Z,98172.24
2018-06-29T04:32:05.466Z,98168.53
2018-06-29T04:34:34.714Z,98164.67
2018-06-29T04:37:03.793Z,98159.95
2018-06-29T04:39:32.878Z,98167.48
2018-06-29T04:42:01.974Z,98171.67
2018-06-29T04:44:31.064Z,98177.56
2018-06-29T04:47:00.174Z,98174.21
2018-06-29T04:49:29.262Z,98169.45
2018-06-29T04:51:58.970Z,98165.94
2018-06-29T04:54:28.102Z,98176.04
2018-06-29T04:56:57.967Z,98180.13
2018-06-29T04:59:27.056Z,98172.91
2018-06-29T05:01:56.165Z,98170.00
2018-06-29T05:04:25.253Z,98162.84
2018-06-29T05:06:54.357Z,98166.20
2018-06-29T05:09:24.005Z,98173.23
2018-06-29T05:11:53.398Z,98175.21
2018-06-29T05:14:22.531Z,98170.78
2018-06-29T05:16:51.598Z,98167.33
2018-06-29T05:19:20.695Z,98163.48
2018-06-29T05:21:49.798Z,98152.80
2018-06-29T05:24:19.742Z,98151.41
2018-06-29T05:26:48.824Z,98138.80
2018-06-29T05:29:17.926Z,98142.59
2018-06-29T05:31:46.981Z,98152.88
2018-06-29T05:34:16.879Z,98150.62
2018-06-29T05:36:46.950Z,98163.74
2018-06-29T05:39:16.850Z,98165.86
2018-06-29T05:41:46.133Z,98168.77
2018-06-29T05:44:17.243Z,98176.41
2018-06-29T05:46:46.794Z,98180.66
2018-06-29T05:49:16.642Z,98179.03
2018-06-29T05:51:46.419Z,98182.57
2018-06-29T05:54:16.270Z,98180.53
2018-06-29T05:56:45.333Z,98174.24
2018-06-29T05:59:14.417Z,98173.31
2018-06-29T06:01:43.545Z,98170.72
2018-06-29T06:04:12.638Z,98168.69
2018-06-29T06:06:41.706Z,98172.01
2018-06-29T06:09:12.319Z,98175.46
2018-06-29T06:11:41.955Z,98169.89
2018-06-29T06:14:11.683Z,98171.17
2018-06-29T06:16:41.605Z,98179.94
2018-06-29T06:19:28.457Z,98177.94
2018-06-29T06:21:57.903Z,98185.63
2018-06-29T06:24:27.411Z,98193.56
2018-06-29T06:26:56.890Z,98189.89
2018-06-29T06:29:26.866Z,98185.31
2018-06-29T06:31:56.218Z,98184.50
2018-06-29T06:34:26.212Z,98187.52
2018-06-29T06:36:55.911Z,98184.39
2018-06-29T06:39:25.226Z,98185.60
2018-06-29T06:41:54.955Z,98185.80
2018-06-29T06:44:24.514Z,98185.34
2018-06-29T06:46:54.031Z,98177.58
2018-06-29T06:49:23.330Z,98181.20
2018-06-29T06:51:52.410Z,98175.26
2018-06-29T06:54:21.498Z,98172.42
2018-06-29T06:56:50.558Z,98179.75
2018-06-29T06:59:19.694Z,98173.09
2018-06-29T07:01:48.737Z,98178.03
2018-06-29T07:04:17.902Z,98176.88
2018-06-29T07:06:47.204Z,98179.17
2018-06-29T07:09:16.281Z,98174.75
2018-06-29T07:11:45.351Z,98174.92
2018-06-29T07:14:14.790Z,98168.12
2018-06-29T07:16:43.838Z,98173.94
2018-06-29T07:19:12.919Z,98175.51
2018-06-29T07:21:42.015Z,98178.23
2018-06-29T07:24:11.137Z,98171.62
2018-06-29T07:26:40.234Z,98168.02
2018-06-29T07:29:09.387Z,98167.62
2018-06-29T07:31:38.503Z,98176.30
2018-06-29T07:34:07.783Z,98171.84
2018-06-29T07:36:37.190Z,98172.97
2018-06-29T07:39:08.425Z,98181.48
2018-06-29T07:41:37.526Z,98173.13
2018-06-29T07:44:06.602Z,98180.40
2018-06-29T07:46:35.732Z,98177.88
2018-06-29T07:49:04.756Z,98173.84
2018-06-29T07:51:33.822Z,98171.84
2018-06-29T07:54:02.931Z,98177.73
2018-06-29T07:56:32.231Z,98174.88
2018-06-29T07:59:01.324Z,98186.84
2018-06-29T08:01:30.393Z,98185.24
2018-06-29T08:03:59.508Z,98186.27
2018-06-29T08:06:28.543Z,98186.02
2018-06-29T08:08:57.650Z,98191.07
2018-06-29T08:11:26.978Z,98194.92
2018-06-29T08:13:56.074Z,98197.87
2018-06-29T08:16:25.162Z,98203.45
2018-06-29T08:18:54.267Z,98202.69
2018-06-29T08:21:23.381Z,98200.86
2018-06-29T08:23:52.526Z,98201.52
2018-06-29T08:26:25.682Z,98199.50
2018-06-29T08:28:55.795Z,98195.13
2018-06-29T08:31:25.683Z,98196.88
2018-06-29T08:33:54.793Z,98198.55
2018-06-29T08:36:23.867Z,98194.52
2018-06-29T08:38:53.239Z,98192.97
2018-06-29T08:41:22.735Z,98191.98
2018-06-29T08:43:51.966Z,98199.12
2018-06-29T08:46:21.369Z,98192.02
2018-06-29T08:48:50.726Z,98186.90
2018-06-29T08:51:20.458Z,98190.92
2018-06-29T08:53:49.700Z,98184.80
2018-06-29T08:56:19.594Z,98190.66
2018-06-29T08:58:48.943Z,98181.45
2018-06-29T09:01:17.966Z,98184.70
2018-06-29T09:03:47.402Z,98185.84
2018-06-29T09:06:17.298Z,98187.55
2018-06-29T09:08:46.702Z,98184.71
2018-06-29T09:11:16.107Z,98178.94
2018-06-29T09:13:45.382Z,98168.64
2018-06-29T09:16:14.747Z,98170.53
2018-06-29T09:18:44.142Z,98164.20
2018-06-29T09:21:15.215Z,98157.36
2018-06-29T09:23:44.330Z,98155.56
2018-06-29T09:26:13.422Z,98158.13
2018-06-29T09:28:42.524Z,98163.01
2018-06-29T09:31:11.651Z,98155.26
2018-06-29T09:33:40.715Z,98157.27
2018-06-29T09:36:09.822Z,98166.45
2018-06-29T09:38:39.714Z,98162.02
2018-06-29T09:41:08.844Z,98162.94
2018-06-29T09:46:55.382Z,98164.64
2018-06-29T09:49:24.743Z,98155.11
2018-06-29T09:51:54.394Z,98150.24
2018-06-29T09:54:24.175Z,98148.42
2018-06-29T09:56:54.434Z,98146.42
2018-06-29T09:59:23.691Z,98150.57
2018-06-29T10:01:52.811Z,98141.91
2018-06-29T10:04:21.952Z,98146.27
2018-06-29T10:06:51.822Z,98146.02
2018-06-29T10:09:20.926Z,98148.84
2018-06-29T10:11:50.031Z,98148.77
2018-06-29T10:14:19.794Z,98149.66
2018-06-29T10:16:48.938Z,98149.91
2018-06-29T10:19:18.274Z,98146.69
2018-06-29T10:21:47.538Z,98143.80
2018-06-29T10:24:16.621Z,98138.14
2018-06-29T10:26:46.142Z,98128.41
2018-06-29T10:29:15.348Z,98133.20
2018-06-29T10:31:44.457Z,98126.23
2018-06-29T10:34:13.604Z,98127.09
2018-06-29T10:36:42.779Z,98122.55
2018-06-29T10:39:14.647Z,98118.37
2018-06-29T10:41:45.139Z,98114.27
2018-06-29T10:44:14.274Z,98107.91
2018-06-29T10:46:43.386Z,98099.28
2018-06-29T10:49:12.722Z,98088.63
2018-06-29T13:18:41.298Z,98002.31
2018-06-29T13:21:11.031Z,97997.85
2018-06-29T13:23:40.331Z,98006.58
2018-06-29T13:26:09.698Z,98005.28
2018-06-29T13:28:38.987Z,97999.48
2018-06-29T13:31:08.450Z,98001.22
2018-06-29T13:33:37.834Z,97986.67
2018-06-29T13:36:07.184Z,97993.12
2018-06-29T13:38:36.517Z,97995.22
2018-06-29T13:41:05.231Z,97984.75
2018-06-29T13:43:34.316Z,97982.82
2018-06-29T13:46:03.836Z,97988.30
2018-06-29T13:48:33.043Z,97985.21
2018-06-29T13:51:02.122Z,97971.28
2018-06-29T13:53:31.455Z,97979.63
2018-06-29T13:56:00.567Z,97969.88
2018-06-29T13:58:29.674Z,97973.66
2018-06-29T14:00:58.787Z,97972.57
2018-06-29T14:03:27.942Z,97963.50
2018-06-29T14:05:58.096Z,97968.23
2018-06-29T14:08:27.479Z,97954.94
2018-06-29T14:10:56.894Z,97962.78
2018-06-29T14:13:26.202Z,97963.45
2018-06-29T14:15:55.558Z,97960.77
2018-06-29T14:18:24.998Z,97951.16
2018-06-29T14:20:54.362Z,97945.11
2018-06-29T14:23:24.794Z,97948.25
2018-06-29T14:25:53.904Z,97945.91
2018-06-29T14:28:22.998Z,97945.31
2018-06-29T14:30:52.137Z,97942.77
2018-06-29T14:33:21.322Z,97942.66
2018-06-29T14:35:50.468Z,97939.02
2018-06-29T14:38:19.559Z,97933.59
2018-06-29T14:40:48.668Z,97936.68
2018-06-29T14:43:17.763Z,97943.00
2018-06-29T14:45:46.857Z,97935.61
2018-06-29T14:48:15.925Z,97931.97
2018-06-29T14:50:45.059Z,97931.39
2018-06-29T14:53:14.154Z,97932.62
2018-06-29T14:55:43.246Z,97930.06
2018-06-29T14:58:12.686Z,97932.97
2018-06-29T15:00:41.810Z,97922.72
2018-06-29T15:03:11.400Z,97926.95
2018-06-29T15:05:41.050Z,97922.05
2018-06-29T15:08:11.690Z,97915.66
2018-06-29T15:10:41.206Z,97912.72
2018-06-29T15:13:10.882Z,97918.78
2018-06-29T15:15:40.332Z,97920.58
2018-06-29T15:18:10.320Z,97913.13
2018-06-29T15:20:40.161Z,97911.82
2018-06-29T15:23:09.562Z,97915.61
2018-06-29T15:25:39.386Z,97910.37
2018-06-29T15:28:09.597Z,97911.00
2018-06-29T15:30:38.622Z,97910.62
2018-06-29T15:33:08.358Z,97905.97
2018-06-29T15:35:37.473Z,97905.66
2018-06-29T15:38:07.366Z,97904.73
2018-06-29T15:40:36.502Z,97896.52
2018-06-29T15:43:10.459Z,97897.17
2018-06-29T15:45:39.610Z,97887.27
2018-06-29T15:48:09.762Z,97894.23
2018-06-29T15:50:38.879Z,97889.23
2018-06-29T15:53:08.398Z,97898.10
2018-06-29T15:55:37.518Z,97893.22
2018-06-29T15:58:07.174Z,97889.28
2018-06-29T16:00:36.317Z,97888.36
2018-06-29T16:03:05.122Z,97894.52
2018-06-29T16:05:34.219Z,97893.49
2018-06-29T16:08:04.135Z,97890.81
2018-06-29T16:10:33.250Z,97893.19
2018-06-29T16:13:02.375Z,97888.19
2018-06-29T16:15:31.483Z,97888.89
2018-06-29T16:18:01.178Z,97890.08
2018-06-29T16:20:30.347Z,97881.17
2018-06-29T16:22:59.498Z,97889.48
2018-06-29T16:25:28.702Z,97887.20
2018-06-29T16:27:57.835Z,97891.26
2018-06-29T16:30:27.031Z,97880.17
2018-06-29T16:32:56.326Z,97883.25
2018-06-29T16:35:25.479Z,97874.94
2018-06-29T16:37:55.294Z,97880.00
2018-06-29T16:40:24.982Z,97874.30
2018-06-29T16:42:54.439Z,97875.69
2018-06-29T16:45:23.758Z,97875.48
2018-06-29T16:47:52.858Z,97879.58
2018-06-29T16:50:22.634Z,97887.93
2018-06-29T16:52:52.580Z,97880.80
2018-06-29T16:55:21.696Z,97875.58
2018-06-29T16:57:50.819Z,97880.25
2018-06-29T17:00:20.273Z,97879.89
2018-06-29T17:02:49.416Z,97880.09
2018-06-29T17:05:18.924Z,97875.72
2018-06-29T17:07:48.197Z,97881.34
2018-06-29T17:10:18.131Z,97885.08
2018-06-29T17:12:48.243Z,97877.85
2018-06-29T17:15:17.462Z,97872.65
2018-06-29T17:17:46.783Z,97877.88
2018-06-29T17:20:16.095Z,97872.97
2018-06-29T17:22:45.388Z,97875.67
2018-06-29T17:25:14.795Z,97874.58
2018-06-29T17:27:44.550Z,97875.52
2018-06-29T17:30:13.798Z,97874.30
2018-06-29T17:32:42.992Z,97874.28
2018-06-29T17:35:12.813Z,97872.59
2018-06-29T17:37:42.194Z,97866.05
2018-06-29T17:40:11.715Z,97870.78
2018-06-29T17:42:41.402Z,97870.90
2018-06-29T17:45:10.523Z,97871.16
2018-06-29T17:47:39.992Z,97872.70
2018-06-29T17:50:09.147Z,97872.65
2018-06-29T17:52:38.283Z,97871.64
2018-06-29T17:55:07.450Z,97874.13
2018-06-29T17:57:36.937Z,97867.16
2018-06-29T18:00:06.777Z,97875.55
2018-06-29T18:02:35.902Z,97873.97
2018-06-29T18:05:05.547Z,97875.41
2018-06-29T18:07:35.570Z,97879.56
2018-06-29T18:10:05.545Z,97869.42
2018-06-29T18:12:34.783Z,97877.31
2018-06-29T18:15:04.834Z,97877.30
2018-06-29T18:17:35.106Z,97883.27
2018-06-29T18:20:05.386Z,97885.47
2018-06-29T18:22:35.407Z,97883.20
2018-06-29T18:25:05.258Z,97878.85
2018-06-29T18:27:35.069Z,97881.82
2018-06-29T18:30:04.995Z,97880.51
2018-06-29T18:32:33.794Z,97878.80
2018-06-29T18:35:02.835Z,97880.17
2018-06-29T18:37:32.675Z,97879.98
2018-06-29T18:40:01.779Z,97877.42
2018-06-29T18:42:30.894Z,97876.52
2018-06-29T18:45:00.072Z,97881.42
2018-06-29T18:47:29.629Z,97878.98
2018-06-29T18:49:58.846Z,97877.23
2018-06-29T18:52:27.981Z,97880.19
2018-06-29T18:54:57.111Z,97883.89
2018-06-29T18:57:26.262Z,97881.20
2018-06-29T18:59:55.374Z,97887.94
2018-06-29T19:02:25.314Z,97886.79
2018-06-29T19:04:55.359Z,97884.41
2018-06-29T19:07:25.058Z,97882.33
2018-06-29T19:09:54.626Z,97888.29
2018-06-29T19:12:23.946Z,97892.88
2018-06-29T19:14:53.538Z,97887.52
2018-06-29T19:17:23.402Z,97901.12
2018-06-29T19:19:52.989Z,97893.81
2018-06-29T19:22:22.493Z,97898.92
2018-06-29T19:24:51.985Z,97894.34
2018-06-29T19:27:21.461Z,97898.70
2018-06-29T19:29:50.638Z,97902.30
2018-06-29T19:32:20.426Z,97902.87
2018-06-29T19:34:50.496Z,97899.73
2018-06-29T19:37:21.347Z,97901.61
2018-06-29T19:39:50.950Z,97903.44
2018-06-29T19:42:20.345Z,97908.33
2018-06-29T19:45:52.837Z,97907.45
2018-06-29T19:48:22.355Z,97908.64
2018-06-29T19:50:52.356Z,97913.22
2018-06-29T19:53:21.720Z,97919.06
2018-06-29T19:55:51.363Z,97917.29
2018-06-29T19:58:21.538Z,97915.02
2018-06-29T20:00:51.395Z,97921.66
2018-06-29T20:03:21.046Z,97922.31
2018-06-29T20:05:50.158Z,97922.60
2018-06-29T20:08:20.703Z,97923.96
2018-06-29T20:10:50.617Z,97926.30
2018-06-29T20:13:20.535Z,97918.69
2018-06-29T20:15:50.330Z,97920.52
2018-06-29T20:18:20.191Z,97922.45
2018-06-29T20:20:50.579Z,97922.55
2018-06-29T20:23:19.962Z,97934.78
2018-06-29T20:25:49.322Z,97938.41
2018-06-29T20:28:18.850Z,97937.39
2018-06-29T20:30:48.869Z,97936.63
2018-06-29T20:33:18.386Z,97935.33
2018-06-29T20:35:47.791Z,97940.52
2018-06-29T20:38:17.937Z,97944.95
2018-06-29T20:40:46.934Z,97945.20
2018-06-29T20:43:16.083Z,97947.27
2018-06-29T20:45:45.310Z,97950.64
2018-06-29T20:48:14.463Z,97947.77
2018-06-29T20:50:43.630Z,97947.73
2018-06-29T20:53:12.766Z,97947.73
2018-06-29T20:55:41.912Z,97945.92
2018-06-29T20:58:10.998Z,97949.55
2018-06-29T21:00:40.138Z,97948.73
2018-06-29T21:03:10.007Z,97941.47
2018-06-29T21:05:39.123Z,97944.35
2018-06-29T21:08:09.850Z,97949.27
2018-06-29T21:10:40.042Z,97946.16
2018-06-29T21:13:09.962Z,97942.98
2018-06-29T21:15:39.707Z,97949.11
2018-06-29T21:18:09.691Z,97944.45
2018-06-29T21:20:40.156Z,97946.48
2018-06-29T21:23:09.554Z,97943.35
2018-06-29T21:25:39.358Z,97943.07
2018-06-29T21:28:08.470Z,97943.59
2018-06-29T21:30:37.622Z,97941.78
2018-06-29T21:33:06.785Z,97945.28
2018-06-29T21:35:35.937Z,97941.83
2018-06-29T21:38:05.148Z,97943.19
2018-06-29T21:40:34.706Z,97941.40
2018-06-29T21:43:03.891Z,97944.63
2018-06-29T21:45:33.699Z,97940.42
2018-06-29T21:48:02.806Z,97945.98
2018-06-29T21:50:31.939Z,97946.73
2018-06-29T21:53:01.039Z,97943.58
2018-06-29T21:55:30.318Z,97945.16
2018-06-29T21:57:59.421Z,97939.16
2018-06-29T22:00:43.778Z,97936.89
2018-06-29T22:03:13.634Z,97943.73
2018-06-29T22:05:43.734Z,97939.94
2018-06-29T22:08:12.888Z,97939.40
2018-06-29T22:10:41.978Z,97933.20
2018-06-29T22:13:11.075Z,97938.88
2018-06-29T22:15:40.199Z,97934.73
2018-06-29T22:18:09.343Z,97934.98
2018-06-29T22:20:38.458Z,97932.61
2018-06-29T22:23:07.554Z,97928.30
2018-06-29T22:25:36.664Z,97926.05
2018-06-29T22:28:05.990Z,97926.42
2018-06-29T22:30:35.161Z,97928.17
2018-06-29T22:33:05.239Z,97925.53
2018-06-29T22:35:34.402Z,97931.36
2018-06-29T22:38:04.027Z,97928.66
2018-06-29T22:40:33.112Z,97931.21
2018-06-29T22:43:02.242Z,97932.15
2018-06-29T22:45:31.890Z,97931.34
2018-06-29T22:48:00.718Z,97932.31
2018-06-29T22:50:32.525Z,97932.44
2018-06-29T22:53:01.635Z,97926.80
2018-06-29T22:55:30.730Z,97927.16
2018-06-29T22:57:59.846Z,97927.86
2018-06-29T23:00:29.083Z,97926.77
2018-06-29T23:03:07.835Z,97928.02
2018-06-29T23:05:36.927Z,97923.08
2018-06-29T23:08:06.925Z,97921.05
2018-06-29T23:10:36.012Z,97917.12
2018-06-29T23:13:05.258Z,97922.00
2018-06-29T23:15:35.994Z,97921.61
2018-06-29T23:18:05.150Z,97926.47
2018-06-29T23:20:34.250Z,97921.20
2018-06-29T23:23:04.166Z,97922.89
2018-06-29T23:25:33.262Z,97925.06
2018-06-29T23:28:02.363Z,97929.92
2018-06-29T23:30:31.502Z,97924.05
2018-06-29T23:33:01.366Z,97917.26
2018-06-29T23:35:30.614Z,97925.52
2018-06-29T23:38:00.382Z,97917.97
2018-06-29T23:40:29.695Z,97918.05
2018-06-29T23:42:58.950Z,97917.93
2018-06-29T23:45:28.240Z,97927.20
2018-06-29T23:47:57.530Z,97913.84
2018-06-29T23:50:26.798Z,97925.82
2018-06-29T23:52:56.698Z,97925.39
2018-06-29T23:55:26.035Z,97912.44
2018-06-29T23:57:55.461Z,97917.45
